Time;durP1;ratioP1;P1;durP2;ratioP2;P2;SDS_P1;SDS_P2;PMS_P1;PMS_P2;Temp;Humidity;BMP_temperature;BMP_pressure;BME280_temperature;BME280_humidity;BME280_pressure;Samples;Min_cycle;Max_cycle;Signal;HPM_P1;HPM_P2
2021/06/04 00:01:44;;;;;;;21.87;18.77;;;18.30;99.90;;;;;;5053611;28;20665;-58
2021/06/04 00:04:11;;;;;;;26.03;17.97;;;18.40;99.90;;;;;;5054038;28;20255;-54
2021/06/04 00:06:37;;;;;;;24.60;18.33;;;18.30;99.90;;;;;;5053680;28;20229;-56
2021/06/04 00:09:07;;;;;;;24.47;18.40;;;18.30;99.90;;;;;;5053479;28;20205;-55
2021/06/04 00:11:36;;;;;;;24.93;18.37;;;18.30;99.90;;;;;;5053134;28;20292;-59
2021/06/04 00:14:05;;;;;;;23.53;19.00;;;18.30;99.90;;;;;;5053749;28;20557;-57
2021/06/04 00:16:35;;;;;;;26.03;20.50;;;18.20;1.00;;;;;;5053547;28;20603;-60
2021/06/04 00:19:06;;;;;;;27.70;21.53;;;18.20;1.00;;;;;;5053535;28;20287;-60
2021/06/04 00:21:35;;;;;;;29.17;22.47;;;18.20;1.00;;;;;;5053110;28;20209;-58
2021/06/04 00:24:03;;;;;;;32.57;24.50;;;18.20;1.00;;;;;;5053599;28;20247;-60
2021/06/04 00:26:31;;;;;;;42.27;29.00;;;18.20;1.00;;;;;;5053394;28;20221;-60
2021/06/04 00:28:58;;;;;;;43.63;29.97;;;18.20;1.00;;;;;;5053403;28;20209;-60
2021/06/04 00:31:25;;;;;;;47.33;30.67;;;18.20;1.00;;;;;;5053031;28;20209;-60
2021/06/04 00:33:53;;;;;;;50.50;33.40;;;18.10;1.00;;;;;;5053340;28;20217;-60
2021/06/04 00:36:19;;;;;;;58.80;34.03;;;18.10;1.00;;;;;;5053059;28;20706;-58
2021/06/04 00:38:46;;;;;;;52.77;35.40;;;18.10;99.90;;;;;;5053308;28;20225;-57
2021/06/04 00:41:16;;;;;;;57.67;35.37;;;18.10;99.90;;;;;;5053159;28;20339;-59
2021/06/04 00:43:42;;;;;;;60.37;38.17;;;18.00;99.90;;;;;;5053517;28;20209;-58
2021/06/04 00:46:08;;;;;;;55.07;36.73;;;18.00;1.00;;;;;;5052813;28;20303;-56
2021/06/04 00:48:35;;;;;;;56.83;38.03;;;18.00;1.00;;;;;;5052958;28;20712;-58
2021/06/04 00:51:09;;;;;;;64.33;39.27;;;18.00;99.90;;;;;;5052790;28;20213;-58
2021/06/04 00:53:36;;;;;;;66.57;41.53;;;18.00;99.90;;;;;;5053496;28;20259;-59
2021/06/04 00:56:03;;;;;;;64.43;40.20;;;18.00;99.90;;;;;;5052778;28;20571;-59
2021/06/04 00:58:35;;;;;;;61.17;39.37;;;18.00;1.00;;;;;;5052697;28;20641;-60
2021/06/04 01:01:02;;;;;;;54.53;37.90;;;18.00;1.00;;;;;;5052435;28;20225;-60
2021/06/04 01:03:31;;;;;;;56.70;38.17;;;18.00;1.00;;;;;;5052776;28;20210;-57
2021/06/04 01:06:06;;;;;;;52.97;36.00;;;18.00;1.00;;;;;;5052628;28;20222;-60
2021/06/04 01:08:46;;;;;;;52.27;34.27;;;18.00;1.00;;;;;;5052650;28;20295;-59
2021/06/04 01:11:19;;;;;;;51.03;34.73;;;18.00;1.00;;;;;;5052393;28;20205;-59
2021/06/04 01:14:00;;;;;;;51.17;35.07;;;18.00;1.00;;;;;;5052595;28;20209;-59
2021/06/04 01:16:32;;;;;;;48.67;34.97;;;18.10;1.00;;;;;;5052596;28;20298;-60
2021/06/04 01:19:18;;;;;;;49.37;35.27;;;18.00;1.00;;;;;;5052370;28;20248;-60
2021/06/04 01:21:49;;;;;;;54.83;37.17;;;18.00;1.00;;;;;;5051126;28;20206;-59
2021/06/04 01:24:27;;;;;;;43.97;32.93;;;18.00;1.00;;;;;;5052629;28;20201;-59
2021/06/04 01:27:01;;;;;;;41.53;29.97;;;18.00;1.00;;;;;;5053135;28;20323;-58
2021/06/04 01:29:34;;;;;;;38.30;28.37;;;18.00;1.00;;;;;;5052868;28;20202;-58
2021/06/04 01:32:05;;;;;;;34.40;27.80;;;18.00;1.00;;;;;;5052618;28;20736;-56
2021/06/04 01:34:38;;;;;;;35.33;27.67;;;17.90;1.00;;;;;;5052618;28;20213;-59
2021/06/04 01:37:08;;;;;;;40.00;29.30;;;17.90;1.00;;;;;;5052182;28;20229;-58
2021/06/04 01:39:37;;;;;;;39.83;30.73;;;17.90;1.00;;;;;;5052186;28;20236;-59
2021/06/04 01:42:07;;;;;;;38.77;30.90;;;17.80;1.00;;;;;;5052113;28;20666;-57
2021/06/04 01:44:39;;;;;;;39.27;31.33;;;17.90;1.00;;;;;;5051849;28;20209;-58
2021/06/04 01:47:08;;;;;;;46.03;33.77;;;17.90;1.00;;;;;;5051953;28;20286;-54
2021/06/04 01:49:37;;;;;;;50.07;35.53;;;17.90;1.00;;;;;;5052261;28;20583;-58
2021/06/04 01:52:11;;;;;;;52.67;36.03;;;17.90;29.00;;;;;;5051960;28;20251;-58
2021/06/04 01:54:41;;;;;;;49.83;36.23;;;17.90;33.50;;;;;;5052438;28;20194;-59
2021/06/04 01:57:13;;;;;;;59.07;38.57;;;17.90;55.70;;;;;;5051950;28;20229;-55
2021/06/04 01:59:42;;;;;;;51.97;37.23;;;17.90;68.90;;;;;;5051870;28;20283;-56
2021/06/04 02:02:09;;;;;;;56.70;36.90;;;17.90;96.30;;;;;;5051896;28;20210;-55
2021/06/04 02:04:38;;;;;;;48.43;34.87;;;17.90;99.90;;;;;;5051775;28;20205;-55
2021/06/04 02:07:06;;;;;;;45.77;33.93;;;18.00;99.90;;;;;;5051721;28;20237;-55
2021/06/04 02:09:32;;;;;;;41.47;32.40;;;18.10;99.90;;;;;;5051697;28;20670;-54
2021/06/04 02:11:59;;;;;;;39.87;31.83;;;18.10;99.90;;;;;;5051758;28;20618;-56
2021/06/04 02:14:30;;;;;;;39.70;30.97;;;18.20;99.90;;;;;;5051862;28;20209;-53
2021/06/04 02:17:11;;;;;;;45.50;33.20;;;18.10;87.00;;;;;;5051684;28;20221;-56
2021/06/04 02:19:48;;;;;;;49.90;35.73;;;18.10;99.90;;;;;;5051633;28;20751;-58
2021/06/04 02:22:20;;;;;;;49.93;34.67;;;18.10;99.90;;;;;;5051305;28;20212;-54
2021/06/04 02:24:54;;;;;;;52.70;36.40;;;18.10;99.90;;;;;;5051877;28;20213;-57
2021/06/04 02:27:28;;;;;;;50.73;35.83;;;18.10;99.90;;;;;;5051579;28;20238;-59
2021/06/04 02:30:01;;;;;;;47.93;34.53;;;18.10;99.90;;;;;;5051459;28;20579;-58
2021/06/04 02:32:33;;;;;;;48.83;32.53;;;18.10;99.90;;;;;;5051403;28;20210;-59
2021/06/04 02:35:05;;;;;;;48.17;33.63;;;18.10;99.90;;;;;;5055722;28;20220;-55
2021/06/04 02:37:35;;;;;;;44.00;33.03;;;18.20;45.10;;;;;;5055494;28;20571;-56
2021/06/04 02:40:09;;;;;;;44.73;31.73;;;18.20;4.30;;;;;;5055391;28;20217;-60
2021/06/04 02:42:38;;;;;;;41.27;33.00;;;18.20;1.00;;;;;;5055366;28;20216;-52
2021/06/04 02:45:11;;;;;;;40.50;29.67;;;18.30;1.00;;;;;;5055064;28;20673;-56
2021/06/04 02:47:42;;;;;;;40.77;29.90;;;18.30;1.00;;;;;;5055078;28;20214;-55
2021/06/04 02:50:11;;;;;;;35.57;28.27;;;18.30;1.00;;;;;;5055166;28;20279;-58
2021/06/04 02:52:40;;;;;;;35.37;27.20;;;18.30;1.00;;;;;;5055216;28;20205;-59
2021/06/04 02:55:12;;;;;;;39.07;28.73;;;18.30;1.00;;;;;;5055060;28;20262;-58
2021/06/04 02:57:39;;;;;;;36.43;28.00;;;18.20;1.00;;;;;;5054905;28;20216;-60
2021/06/04 03:00:12;;;;;;;41.87;29.50;;;18.30;1.00;;;;;;5055045;28;20233;-58
2021/06/04 03:02:39;;;;;;;38.40;30.23;;;18.30;1.00;;;;;;5055038;28;20217;-58
2021/06/04 03:05:12;;;;;;;41.37;31.23;;;18.30;1.00;;;;;;5054839;28;20209;-60
2021/06/04 03:07:41;;;;;;;46.63;32.10;;;18.20;1.00;;;;;;5054918;28;20205;-59
2021/06/04 03:10:11;;;;;;;46.33;33.10;;;18.20;1.00;;;;;;5055340;28;20273;-58
2021/06/04 03:12:41;;;;;;;44.50;32.77;;;18.30;1.00;;;;;;5055030;28;20260;-58
2021/06/04 03:15:17;;;;;;;43.97;32.87;;;18.30;1.00;;;;;;5054799;28;20205;-58
2021/06/04 03:17:44;;;;;;;40.77;31.63;;;18.30;99.90;;;;;;5054753;28;20575;-56
2021/06/04 03:20:12;;;;;;;47.43;31.67;;;18.30;99.90;;;;;;5054392;28;20588;-54
2021/06/04 03:22:41;;;;;;;41.20;31.33;;;18.30;99.90;;;;;;5054588;28;20213;-55
2021/06/04 03:25:13;;;;;;;41.27;31.43;;;18.30;99.90;;;;;;5054552;28;20210;-59
2021/06/04 03:27:40;;;;;;;40.20;32.17;;;18.30;99.90;;;;;;5054749;28;20212;-59
2021/06/04 03:30:09;;;;;;;44.73;32.30;;;18.30;99.90;;;;;;5054299;28;20213;-59
2021/06/04 03:32:35;;;;;;;55.70;35.83;;;18.30;99.90;;;;;;5054479;28;20209;-57
2021/06/04 03:35:02;;;;;;;66.37;39.90;;;18.20;99.90;;;;;;5054328;28;20251;-59
2021/06/04 03:37:29;;;;;;;68.37;40.50;;;18.10;1.00;;;;;;5054247;28;20236;-57
2021/06/04 03:39:55;;;;;;;56.50;37.97;;;18.20;1.00;;;;;;5054457;28;20670;-57
2021/06/04 03:42:25;;;;;;;53.50;35.33;;;18.20;1.00;;;;;;5055183;28;20213;-60
2021/06/04 03:44:51;;;;;;;48.73;33.87;;;18.20;99.90;;;;;;5053568;28;20214;-59
2021/06/04 03:47:20;;;;;;;46.97;31.90;;;18.30;99.90;;;;;;5054282;28;20234;-59
2021/06/04 03:49:47;;;;;;;48.00;33.80;;;18.30;99.90;;;;;;5055306;28;20201;-59
2021/06/04 03:52:22;;;;;;;59.07;35.40;;;18.30;99.90;;;;;;5054826;28;20260;-59
2021/06/04 03:54:51;;;;;;;47.80;34.10;;;18.20;99.90;;;;;;5054434;28;20270;-53
2021/06/04 03:57:21;;;;;;;48.47;32.67;;;18.20;99.90;;;;;;5053943;28;20733;-52
2021/06/04 03:59:47;;;;;;;46.23;33.43;;;18.30;99.90;;;;;;5053779;28;20225;-57
2021/06/04 04:02:17;;;;;;;41.27;30.97;;;18.30;99.90;;;;;;5053589;28;20232;-57
2021/06/04 04:04:45;;;;;;;44.30;30.67;;;18.30;99.90;;;;;;5054073;28;20205;-57
2021/06/04 04:07:12;;;;;;;42.93;30.63;;;18.30;99.90;;;;;;5053671;28;20238;-56
2021/06/04 04:09:39;;;;;;;47.90;34.77;;;18.30;99.90;;;;;;5053835;28;20256;-55
2021/06/04 04:12:05;;;;;;;45.30;33.77;;;18.30;99.90;;;;;;5053401;28;20225;-55
2021/06/04 04:14:32;;;;;;;50.37;33.90;;;18.40;99.90;;;;;;5053508;28;20259;-57
2021/06/04 04:16:58;;;;;;;41.90;31.37;;;18.40;99.90;;;;;;5053598;28;20221;-57
2021/06/04 04:19:25;;;;;;;50.57;33.37;;;18.40;99.90;;;;;;5053828;28;20233;-58
2021/06/04 04:21:56;;;;;;;42.17;31.53;;;18.40;99.90;;;;;;5053429;28;20595;-59
2021/06/04 04:24:24;;;;;;;42.40;30.33;;;18.40;99.90;;;;;;5053485;28;20205;-56
2021/06/04 04:26:51;;;;;;;42.37;31.03;;;18.40;99.90;;;;;;5053281;28;20225;-57
2021/06/04 04:29:17;;;;;;;40.13;30.70;;;18.40;99.90;;;;;;5053182;28;20202;-56
2021/06/04 04:31:46;;;;;;;48.43;31.43;;;18.40;99.90;;;;;;5053236;28;20209;-59
2021/06/04 04:34:13;;;;;;;34.73;28.03;;;18.40;99.90;;;;;;5053466;28;20236;-60
2021/06/04 04:36:43;;;;;;;47.07;30.23;;;18.50;99.90;;;;;;5053041;28;20706;-60
2021/06/04 04:39:13;;;;;;;37.73;29.73;;;18.50;99.90;;;;;;5053202;28;20222;-58
2021/06/04 04:41:40;;;;;;;41.93;31.20;;;18.60;99.90;;;;;;5052968;28;20213;-60
2021/06/04 04:44:06;;;;;;;43.47;31.30;;;18.60;99.90;;;;;;5053230;28;20260;-58
2021/06/04 04:46:33;;;;;;;41.10;31.87;;;18.60;99.90;;;;;;5052799;28;20718;-60
2021/06/04 04:48:59;;;;;;;48.30;33.97;;;18.70;99.90;;;;;;5053071;28;20205;-60
2021/06/04 04:51:28;;;;;;;50.07;34.53;;;18.70;99.90;;;;;;5052860;28;20293;-60
2021/06/04 04:53:55;;;;;;;45.50;32.87;;;18.70;1.00;;;;;;5052822;28;20216;-60
2021/06/04 04:56:23;;;;;;;40.53;31.73;;;18.80;1.00;;;;;;5052452;28;20230;-60
2021/06/04 04:58:50;;;;;;;39.67;31.23;;;18.90;1.00;;;;;;5052820;28;20283;-57
2021/06/04 05:01:17;;;;;;;34.73;28.40;;;18.90;1.00;;;;;;5052737;28;20210;-60
2021/06/04 05:03:43;;;;;;;40.60;29.40;;;19.00;99.90;;;;;;5052866;28;20287;-60
2021/06/04 05:06:10;;;;;;;36.57;29.23;;;19.10;99.90;;;;;;5052698;28;20316;-60
2021/06/04 05:08:37;;;;;;;43.50;31.53;;;19.10;99.90;;;;;;5052566;28;20301;-59
2021/06/04 05:11:04;;;;;;;40.53;30.73;;;19.20;99.90;;;;;;5052373;28;20287;-60
2021/06/04 05:13:32;;;;;;;39.43;31.93;;;19.30;99.90;;;;;;5052679;28;20217;-60
2021/06/04 05:16:03;;;;;;;48.73;34.13;;;19.30;99.90;;;;;;5052470;28;20230;-59
2021/06/04 05:18:29;;;;;;;46.63;36.30;;;19.20;99.90;;;;;;5052590;28;20275;-60
2021/06/04 05:20:56;;;;;;;48.67;35.53;;;19.20;99.90;;;;;;5052190;28;20209;-60
2021/06/04 05:23:22;;;;;;;46.57;34.73;;;19.30;99.90;;;;;;5052207;28;20209;-60
2021/06/04 05:25:50;;;;;;;41.90;32.37;;;19.30;99.90;;;;;;5052467;28;20591;-60
2021/06/04 05:28:20;;;;;;;41.07;33.00;;;19.40;99.90;;;;;;5052491;28;20204;-59
2021/06/04 05:30:49;;;;;;;43.57;35.17;;;19.40;18.90;;;;;;5052176;28;20206;-58
2021/06/04 05:33:18;;;;;;;44.07;35.00;;;19.40;1.00;;;;;;5052162;28;20216;-60
2021/06/04 05:35:44;;;;;;;38.20;31.53;;;19.50;1.00;;;;;;5052017;28;20229;-58
2021/06/04 05:38:11;;;;;;;39.20;31.37;;;19.60;1.00;;;;;;5052038;28;20232;-58
2021/06/04 05:40:45;;;;;;;38.03;30.03;;;19.80;99.90;;;;;;5052088;28;20259;-59
2021/06/04 05:43:13;;;;;;;33.87;28.70;;;20.00;99.90;;;;;;5052289;28;20213;-58
2021/06/04 05:45:43;;;;;;;35.33;28.67;;;20.10;21.20;;;;;;5051936;28;20222;-58
2021/06/04 05:48:12;;;;;;;30.93;26.67;;;20.30;1.00;;;;;;5052203;28;20214;-60
2021/06/04 05:50:42;;;;;;;37.83;29.37;;;20.40;1.00;;;;;;5051669;28;20221;-59
2021/06/04 05:53:10;;;;;;;40.10;29.03;;;20.30;99.90;;;;;;5052176;28;20607;-59
2021/06/04 05:55:37;;;;;;;35.67;29.07;;;20.40;99.90;;;;;;5052008;28;20228;-58
2021/06/04 05:58:04;;;;;;;37.63;29.37;;;20.40;99.90;;;;;;5051888;28;20590;-58
2021/06/04 06:00:35;;;;;;;34.20;29.30;;;20.30;99.90;;;;;;5051830;28;20614;-60
2021/06/04 06:03:03;;;;;;;31.40;27.23;;;20.30;99.90;;;;;;5051998;28;20210;-56
2021/06/04 06:05:31;;;;;;;33.77;27.83;;;20.40;99.90;;;;;;5052054;28;20597;-55
2021/06/04 06:07:57;;;;;;;35.30;27.67;;;20.30;99.90;;;;;;5054008;28;20206;-57
2021/06/04 06:10:24;;;;;;;33.50;26.70;;;20.30;99.90;;;;;;5058263;28;20216;-58
2021/06/04 06:12:51;;;;;;;33.80;27.23;;;20.40;99.90;;;;;;5058262;28;20212;-61
2021/06/04 06:15:18;;;;;;;31.63;26.93;;;20.40;99.90;;;;;;5058074;28;20621;-59
2021/06/04 06:17:44;;;;;;;28.77;25.60;;;20.60;99.90;;;;;;5058077;28;20559;-59
2021/06/04 06:20:12;;;;;;;30.67;24.67;;;20.80;99.90;;;;;;5058298;28;20221;-57
2021/06/04 06:22:40;;;;;;;31.97;26.57;;;20.90;99.90;;;;;;5058454;28;20205;-59
2021/06/04 06:25:07;;;;;;;29.27;25.27;;;21.00;99.90;;;;;;5058146;28;20201;-57
2021/06/04 06:27:34;;;;;;;27.50;24.37;;;21.10;44.80;;;;;;5058166;28;20205;-59
2021/06/04 06:30:00;;;;;;;33.83;27.50;;;21.10;40.80;;;;;;5057988;28;20201;-58
2021/06/04 06:32:26;;;;;;;33.50;28.10;;;21.00;26.60;;;;;;5058113;28;20210;-59
2021/06/04 06:34:52;;;;;;;34.30;29.07;;;20.90;10.80;;;;;;5058416;28;20628;-60
2021/06/04 06:37:18;;;;;;;32.27;26.40;;;20.90;77.00;;;;;;5058196;28;20225;-57
2021/06/04 06:39:46;;;;;;;35.50;28.40;;;21.00;87.00;;;;;;5058027;28;20228;-60
2021/06/04 06:42:12;;;;;;;37.23;28.87;;;21.10;28.40;;;;;;5057988;28;20206;-58
2021/06/04 06:44:39;;;;;;;37.80;30.60;;;21.20;11.20;;;;;;5057859;28;20213;-59
2021/06/04 06:47:05;;;;;;;35.77;28.77;;;21.30;11.30;;;;;;5058258;28;20241;-60
2021/06/04 06:49:31;;;;;;;38.30;29.53;;;21.40;44.20;;;;;;5057939;28;20682;-59
2021/06/04 06:51:58;;;;;;;39.40;29.20;;;21.60;11.20;;;;;;5057995;28;20208;-60
2021/06/04 06:54:27;;;;;;;45.20;30.37;;;21.70;1.00;;;;;;5058086;28;20236;-59
2021/06/04 06:56:56;;;;;;;43.23;31.40;;;21.70;1.00;;;;;;5057966;28;20225;-59
2021/06/04 06:59:25;;;;;;;40.50;31.07;;;21.50;1.00;;;;;;5057576;28;20324;-60
2021/06/04 07:01:51;;;;;;;44.90;31.13;;;21.40;1.00;;;;;;5057922;28;20694;-59
2021/06/04 07:04:18;;;;;;;41.10;32.10;;;21.40;1.00;;;;;;5058154;28;20213;-59
2021/06/04 07:06:45;;;;;;;42.40;31.10;;;21.40;1.00;;;;;;5058017;28;20748;-60
2021/06/04 07:09:14;;;;;;;47.20;31.83;;;21.50;1.00;;;;;;5057950;28;20811;-59
2021/06/04 07:11:50;;;;;;;45.47;33.33;;;21.50;1.00;;;;;;5057689;28;20206;-59
2021/06/04 07:14:20;;;;;;;44.17;31.63;;;21.50;1.00;;;;;;5057962;28;20213;-59
2021/06/04 07:16:47;;;;;;;54.43;37.30;;;21.60;1.00;;;;;;5058387;28;20217;-59
2021/06/04 07:19:13;;;;;;;51.03;37.07;;;21.40;1.00;;;;;;5057023;28;20267;-59
2021/06/04 07:21:40;;;;;;;53.17;35.27;;;21.50;11.10;;;;;;5054420;28;20210;-59
2021/06/04 07:24:13;;;;;;;52.70;37.83;;;21.60;1.00;;;;;;5054644;28;20212;-56
2021/06/04 07:26:39;;;;;;;53.70;40.40;;;21.70;1.00;;;;;;5054806;28;20253;-59
2021/06/04 07:29:05;;;;;;;55.10;41.00;;;21.80;1.00;;;;;;5054842;28;20197;-57
2021/06/04 07:31:33;;;;;;;56.80;41.30;;;21.90;1.00;;;;;;5054306;28;20214;-56
2021/06/04 07:34:02;;;;;;;53.73;41.60;;;21.90;1.00;;;;;;5054632;28;20239;-57
2021/06/04 07:36:32;;;;;;;54.80;40.17;;;21.90;1.00;;;;;;5054248;28;20241;-56
2021/06/04 07:38:59;;;;;;;55.37;40.93;;;22.00;1.00;;;;;;5054325;28;20233;-53
2021/06/04 07:41:27;;;;;;;54.50;41.37;;;22.00;1.00;;;;;;5054268;28;20206;-55
2021/06/04 07:43:53;;;;;;;61.00;43.27;;;22.10;1.00;;;;;;5054454;28;20218;-54
2021/06/04 07:46:21;;;;;;;55.67;42.00;;;22.20;1.00;;;;;;5054929;28;20749;-59
2021/06/04 07:48:49;;;;;;;55.27;42.97;;;22.20;1.00;;;;;;5055665;28;20201;-59
2021/06/04 07:51:19;;;;;;;55.30;41.30;;;22.40;1.00;;;;;;5054263;28;20213;-53
2021/06/04 07:53:45;;;;;;;65.60;46.63;;;22.50;1.00;;;;;;5055414;28;20209;-59
2021/06/04 07:56:15;;;;;;;62.73;47.63;;;22.70;1.00;;;;;;5056283;28;20226;-57
2021/06/04 07:58:41;;;;;;;68.60;46.67;;;22.60;1.00;;;;;;5056315;28;20643;-59
2021/06/04 08:01:08;;;;;;;66.57;49.93;;;22.60;1.00;;;;;;5054917;28;20217;-58
2021/06/04 08:03:35;;;;;;;66.90;49.77;;;22.80;1.00;;;;;;5053832;28;20271;-56
2021/06/04 08:06:04;;;;;;;64.10;47.73;;;22.70;1.00;;;;;;5053713;28;20698;-57
2021/06/04 08:08:30;;;;;;;62.03;47.13;;;22.80;1.00;;;;;;5053981;28;20213;-59
2021/06/04 08:10:58;;;;;;;60.50;44.97;;;22.90;1.00;;;;;;5053786;28;20210;-57
2021/06/04 08:13:24;;;;;;;62.67;45.33;;;22.80;1.00;;;;;;5053598;28;20212;-59
2021/06/04 08:15:53;;;;;;;61.27;42.27;;;23.00;1.00;;;;;;5053713;28;20222;-56
2021/06/04 08:18:21;;;;;;;53.07;43.00;;;23.30;99.90;;;;;;5053342;28;20205;-58
2021/06/04 08:20:48;;;;;;;60.93;43.77;;;23.20;99.90;;;;;;5053601;28;20205;-59
2021/06/04 08:23:18;;;;;;;59.40;43.87;;;23.10;99.90;;;;;;5053590;28;20205;-57
2021/06/04 08:25:49;;;;;;;61.77;44.33;;;23.10;99.90;;;;;;5053543;28;20225;-57
2021/06/04 08:28:17;;;;;;;58.47;43.83;;;23.00;99.90;;;;;;5053622;28;20591;-56
2021/06/04 08:30:44;;;;;;;55.67;42.67;;;23.00;99.90;;;;;;5052681;28;20213;-58
2021/06/04 08:33:12;;;;;;;59.70;43.17;;;23.10;99.90;;;;;;5053177;28;20221;-58
2021/06/04 08:35:38;;;;;;;57.27;43.87;;;23.00;99.90;;;;;;5053365;28;20237;-56
2021/06/04 08:38:05;;;;;;;60.87;43.00;;;23.10;1.00;;;;;;5053143;28;20546;-54
2021/06/04 08:40:36;;;;;;;53.40;41.77;;;23.00;99.90;;;;;;5053025;28;20232;-59
2021/06/04 08:43:16;;;;;;;53.97;42.47;;;22.80;99.90;;;;;;5053105;28;20578;-55
2021/06/04 08:45:51;;;;;;;54.73;40.63;;;22.70;99.90;;;;;;5052764;28;20251;-53
2021/06/04 08:48:33;;;;;;;50.07;38.57;;;22.90;99.90;;;;;;5051219;28;20594;-62
2021/06/04 08:51:10;;;;;;;44.60;35.17;;;23.10;99.90;;;;;;5032844;28;20264;-62
2021/06/04 08:53:44;;;;;;;48.83;37.17;;;23.20;99.90;;;;;;5039366;28;20202;-63
2021/06/04 08:56:15;;;;;;;44.40;37.80;;;23.20;99.90;;;;;;5051144;28;20295;-63
2021/06/04 08:58:50;;;;;;;53.00;39.53;;;23.10;99.90;;;;;;5052530;28;20236;-62
2021/06/04 09:01:21;;;;;;;46.77;35.90;;;22.90;99.90;;;;;;5051065;28;20209;-62
2021/06/04 09:03:52;;;;;;;48.03;36.13;;;22.50;99.90;;;;;;5052154;28;20206;-61
2021/06/04 09:06:28;;;;;;;45.80;34.13;;;22.50;99.90;;;;;;5051757;28;20233;-61
2021/06/04 09:08:55;;;;;;;40.67;32.10;;;22.70;99.90;;;;;;5052359;28;20237;-60
2021/06/04 09:11:27;;;;;;;39.13;30.20;;;23.10;99.90;;;;;;5052141;28;20256;-61
2021/06/04 09:13:53;;;;;;;45.70;35.37;;;23.40;99.90;;;;;;5052009;28;20259;-61
2021/06/04 09:16:28;;;;;;;38.33;32.00;;;23.80;99.90;;;;;;5050617;28;20233;-61
2021/06/04 09:19:02;;;;;;;42.70;32.10;;;23.90;99.90;;;;;;5051967;28;20624;-62
2021/06/04 09:21:33;;;;;;;40.80;33.13;;;24.10;99.90;;;;;;5051843;28;20665;-61
2021/06/04 09:24:02;;;;;;;39.50;31.93;;;24.30;99.90;;;;;;5051528;28;20210;-62
2021/06/04 09:26:30;;;;;;;44.73;35.17;;;24.40;99.90;;;;;;5051911;28;20247;-62
2021/06/04 09:29:13;;;;;;;37.77;29.50;;;24.50;99.90;;;;;;5051752;28;20205;-62
2021/06/04 09:31:43;;;;;;;34.60;27.47;;;24.40;99.90;;;;;;5051860;28;20603;-62
2021/06/04 09:34:15;;;;;;;34.73;26.70;;;24.30;99.90;;;;;;5051553;28;20623;-61
2021/06/04 09:36:45;;;;;;;33.83;29.07;;;24.40;99.90;;;;;;5051935;28;20222;-60
2021/06/04 09:39:28;;;;;;;32.33;24.40;;;24.60;99.90;;;;;;5051751;28;20225;-61
2021/06/04 09:42:15;;;;;;;29.87;24.53;;;24.50;99.90;;;;;;5051473;28;20747;-61
2021/06/04 09:44:53;;;;;;;22.87;19.33;;;24.70;99.90;;;;;;5051234;28;20565;-61
2021/06/04 09:47:27;;;;;;;27.80;22.43;;;24.80;99.90;;;;;;5051801;28;20605;-63
2021/06/04 09:49:53;;;;;;;28.53;22.63;;;24.80;99.90;;;;;;5051559;28;20202;-62
2021/06/04 09:52:24;;;;;;;28.10;21.83;;;24.70;99.90;;;;;;5051636;28;20213;-62
2021/06/04 09:55:21;;;;;;;26.43;20.77;;;24.80;99.90;;;;;;5051885;28;20209;-62
2021/06/04 09:58:23;;;;;;;27.37;21.77;;;24.90;99.90;;;;;;5051567;28;20247;-63
2021/06/04 10:01:05;;;;;;;27.30;21.90;;;25.20;99.90;;;;;;5051420;28;20213;-63
2021/06/04 10:03:35;;;;;;;27.33;21.07;;;25.50;99.90;;;;;;5051576;28;20205;-63
2021/06/04 10:06:40;;;;;;;29.13;21.83;;;25.50;99.90;;;;;;5051296;28;20713;-63
2021/06/04 10:09:29;;;;;;;24.87;21.03;;;25.30;99.90;;;;;;5051679;28;20216;-63
2021/06/04 10:12:00;;;;;;;23.37;19.27;;;25.40;99.90;;;;;;5045815;28;20214;-63
2021/06/04 10:14:43;;;;;;;25.43;20.70;;;25.40;99.90;;;;;;5051454;28;20472;-63
2021/06/04 10:17:37;;;;;;;24.83;20.70;;;25.50;99.90;;;;;;5050912;28;20763;-63
2021/06/04 10:20:23;;;;;;;29.17;23.17;;;25.40;99.90;;;;;;5051291;28;20228;-63
2021/06/04 10:22:53;;;;;;;28.67;22.17;;;25.10;99.90;;;;;;5051697;28;20686;-63
2021/06/04 10:25:23;;;;;;;25.53;19.73;;;24.90;99.90;;;;;;5051167;28;20217;-63
2021/06/04 10:27:52;;;;;;;21.87;18.63;;;25.10;99.90;;;;;;5051155;28;20209;-62
2021/06/04 10:30:22;;;;;;;24.50;19.30;;;25.30;99.90;;;;;;5051311;28;20216;-62
2021/06/04 10:33:01;;;;;;;27.63;18.70;;;25.30;99.90;;;;;;5051495;28;20259;-62
2021/06/04 10:35:33;;;;;;;22.97;20.13;;;25.40;99.90;;;;;;5050915;28;20721;-61
2021/06/04 10:38:04;;;;;;;25.87;20.30;;;25.20;99.90;;;;;;5051055;28;20217;-61
2021/06/04 10:40:35;;;;;;;28.40;19.67;;;25.10;99.90;;;;;;5051450;28;20300;-61
2021/06/04 10:43:14;;;;;;;22.83;18.03;;;25.10;99.90;;;;;;5051068;28;20231;-65
2021/06/04 10:45:47;;;;;;;22.73;18.53;;;25.00;99.90;;;;;;5051285;28;20225;-62
2021/06/04 10:48:36;;;;;;;23.13;18.40;;;24.90;99.90;;;;;;5051322;28;20224;-62
2021/06/04 10:51:11;;;;;;;19.53;16.57;;;25.00;99.90;;;;;;5051067;28;20206;-62
2021/06/04 10:53:47;;;;;;;24.70;20.77;;;25.10;99.90;;;;;;5051263;28;20213;-63
2021/06/04 10:56:19;;;;;;;25.37;19.73;;;24.90;99.90;;;;;;5054833;28;20229;-62
2021/06/04 10:58:54;;;;;;;23.87;19.80;;;24.70;99.90;;;;;;5054603;28;20229;-64
2021/06/04 11:01:33;;;;;;;22.97;19.33;;;24.70;99.90;;;;;;5054834;28;20209;-64
2021/06/04 11:04:06;;;;;;;24.43;19.60;;;24.60;99.90;;;;;;5054561;28;20205;-64
2021/06/04 11:06:39;;;;;;;24.10;20.60;;;24.80;99.90;;;;;;5054625;28;20290;-64
2021/06/04 11:09:17;;;;;;;25.20;20.50;;;25.00;99.90;;;;;;5054727;28;20205;-64
2021/06/04 11:12:00;;;;;;;22.30;18.23;;;25.10;99.90;;;;;;5054203;28;20213;-64
2021/06/04 11:14:41;;;;;;;21.13;18.90;;;25.20;99.90;;;;;;5054508;28;20202;-65
2021/06/04 11:17:19;;;;;;;26.47;20.27;;;25.50;99.90;;;;;;5054518;28;20229;-62
2021/06/04 11:19:49;;;;;;;23.50;20.73;;;25.70;99.90;;;;;;5054219;28;20221;-67
2021/06/04 11:22:19;;;;;;;26.13;19.83;;;25.90;99.90;;;;;;5054306;28;20704;-64
2021/06/04 11:24:51;;;;;;;23.83;20.03;;;26.10;99.90;;;;;;5054407;28;20259;-65
2021/06/04 11:27:23;;;;;;;28.60;23.03;;;26.20;99.90;;;;;;5054264;28;20279;-64
2021/06/04 11:29:50;;;;;;;25.57;18.90;;;26.30;99.90;;;;;;5054246;28;20198;-63
2021/06/04 11:32:21;;;;;;;25.43;19.80;;;26.20;99.90;;;;;;5053985;28;20209;-63
2021/06/04 11:34:53;;;;;;;21.57;17.90;;;26.00;99.90;;;;;;5054161;28;20213;-63
2021/06/04 11:37:26;;;;;;;25.00;19.43;;;26.10;99.90;;;;;;5054231;28;20225;-64
2021/06/04 11:39:58;;;;;;;21.73;18.30;;;26.30;99.90;;;;;;5053826;28;20232;-63
2021/06/04 11:42:30;;;;;;;24.83;19.33;;;26.50;99.90;;;;;;5053991;28;20214;-64
2021/06/04 11:45:00;;;;;;;23.63;19.50;;;26.40;99.90;;;;;;5053052;28;20205;-63
2021/06/04 11:47:31;;;;;;;26.97;20.87;;;26.50;99.90;;;;;;5053815;28;20230;-63
2021/06/04 11:50:22;;;;;;;24.17;20.10;;;26.00;99.90;;;;;;5053686;28;20736;-62
2021/06/04 11:52:50;;;;;;;22.63;19.23;;;26.00;99.90;;;;;;5055386;28;20612;-63
2021/06/04 11:55:30;;;;;;;22.63;18.07;;;26.30;99.90;;;;;;5062457;28;20622;-63
2021/06/04 11:58:00;;;;;;;26.07;19.80;;;26.40;99.90;;;;;;5062626;28;20247;-62
2021/06/04 12:00:39;;;;;;;32.50;28.20;;;26.10;99.90;;;;;;5056231;28;20222;-62
2021/06/04 12:03:28;;;;;;;30.47;23.70;;;25.80;99.90;;;;;;5053852;28;20209;-61
2021/06/04 12:05:57;;;;;;;24.90;18.47;;;25.80;99.90;;;;;;5062022;28;20229;-62
2021/06/04 12:08:38;;;;;;;20.67;18.03;;;25.90;99.90;;;;;;5064894;28;20856;-62
2021/06/04 12:11:25;;;;;;;19.23;17.23;;;25.80;99.90;;;;;;5061457;28;20205;-63
2021/06/04 12:14:15;;;;;;;20.27;17.50;;;25.70;99.90;;;;;;5052864;28;20259;-62
2021/06/04 12:16:42;;;;;;;20.50;16.80;;;25.80;99.90;;;;;;5053615;28;20264;-62
2021/06/04 12:19:31;;;;;;;28.37;20.30;;;25.90;99.90;;;;;;5053714;28;20225;-63
2021/06/04 12:22:10;;;;;;;21.20;18.37;;;26.10;99.90;;;;;;5053564;28;20587;-62
2021/06/04 12:24:55;;;;;;;22.43;17.80;;;26.30;99.90;;;;;;5053694;28;20368;-62
2021/06/04 12:27:45;;;;;;;19.70;17.37;;;26.60;99.90;;;;;;5053550;28;20221;-63
2021/06/04 12:30:54;;;;;;;23.73;16.93;;;26.70;99.90;;;;;;5053078;28;20202;-62
2021/06/04 12:33:47;;;;;;;19.23;17.07;;;27.10;99.90;;;;;;5052696;28;20212;-62
2021/06/04 12:36:49;;;;;;;19.80;15.53;;;27.40;99.90;;;;;;5052910;28;20714;-62
2021/06/04 12:39:54;;;;;;;21.93;16.17;;;27.30;99.90;;;;;;5052842;28;20264;-63
2021/06/04 12:42:38;;;;;;;23.33;17.43;;;27.20;99.90;;;;;;5052890;28;20725;-62
2021/06/04 12:45:28;;;;;;;20.43;17.40;;;27.20;99.90;;;;;;5052313;28;20209;-63
2021/06/04 12:48:02;;;;;;;22.53;15.37;;;27.20;99.90;;;;;;5053052;28;20232;-65
2021/06/04 12:50:32;;;;;;;23.63;17.93;;;27.40;99.90;;;;;;5052826;28;20209;-64
2021/06/04 12:53:11;;;;;;;24.27;19.03;;;27.10;99.90;;;;;;5052729;28;20217;-64